You are listening to:
KWVI CTAF/NORCAL App - Watsonville, California, United States

KWVI 041753Z AUTO 16004KT 10SM BKN008 11/11 A3013 RMK AO2 CIG 006V010 SLP202 60008 T01110106 10117 20083 51019

If stream doesn't start automatically press the play button
If stream stops then reload player then press play